Time;durP1;ratioP1;P1;durP2;ratioP2;P2;SDS_P1;SDS_P2;PMS_P1;PMS_P2;Temp;Humidity;BMP_temperature;BMP_pressure;BME280_temperature;BME280_humidity;BME280_pressure;Samples;Min_cycle;Max_cycle;Signal;HPM_P1;HPM_P2
2023/01/19 00:00:00;;;;;;;14.38;8.98;;;;;;;3.51;57.35;99540.34;690828;28;2037;-82
2023/01/19 00:00:21;;;;;;;12.10;8.50;;;;;;;3.54;57.49;99535.28;690889;28;1036;-82
2023/01/19 00:00:42;;;;;;;11.98;8.30;;;;;;;3.42;57.85;99524.50;690884;28;980;-82
2023/01/19 00:01:02;;;;;;;10.35;7.88;;;;;;;3.51;57.73;99540.34;690840;28;1028;-83
2023/01/19 00:01:23;;;;;;;11.40;7.90;;;;;;;3.48;57.78;99523.88;691600;28;1121;-82
2023/01/19 00:01:44;;;;;;;11.55;8.32;;;;;;;3.48;57.50;99524.75;694082;28;995;-82
2023/01/19 00:02:05;;;;;;;13.73;8.93;;;;;;;3.49;57.78;99531.66;690726;28;1068;-82
2023/01/19 00:02:25;;;;;;;12.90;8.87;;;;;;;3.46;57.89;99528.97;688092;28;1906;-82
2023/01/19 00:02:46;;;;;;;12.70;8.85;;;;;;;3.43;57.52;99521.09;686042;28;1015;-82
2023/01/19 00:03:14;;;;;;;11.95;8.98;;;;;;;3.48;57.21;99529.03;684609;28;1265;-80
2023/01/19 00:03:35;;;;;;;11.55;8.65;;;;;;;3.53;58.02;99530.97;685587;28;1987;-80
2023/01/19 00:03:56;;;;;;;12.73;8.70;;;;;;;3.49;57.52;99526.50;685614;28;1096;-81
2023/01/19 00:04:17;;;;;;;11.77;8.40;;;;;;;3.47;57.70;99528.16;688970;28;1251;-82
2023/01/19 00:04:38;;;;;;;12.10;8.52;;;;;;;3.46;57.85;99523.81;686262;28;1189;-82
2023/01/19 00:05:02;;;;;;;11.82;8.82;;;;;;;3.50;57.38;99538.56;690610;28;1097;-82
2023/01/19 00:05:23;;;;;;;12.45;9.07;;;;;;;3.50;57.37;99533.41;690004;28;947;-82
2023/01/19 00:05:43;;;;;;;11.97;9.00;;;;;;;3.53;57.58;99535.22;689043;28;1568;-83
2023/01/19 00:06:05;;;;;;;12.45;8.70;;;;;;;3.51;57.58;99540.34;688909;28;1289;-82
2023/01/19 00:06:26;;;;;;;16.17;8.80;;;;;;;3.50;57.68;99548.88;690051;28;925;-82
2023/01/19 00:06:46;;;;;;;15.17;8.90;;;;;;;3.37;57.54;99521.75;692499;28;972;-82
2023/01/19 00:07:07;;;;;;;14.82;9.00;;;;;;;3.48;57.59;99540.22;694805;28;1297;-82
2023/01/19 00:07:29;;;;;;;14.48;8.90;;;;;;;3.37;58.00;99531.22;697340;28;806;-82
2023/01/19 00:07:50;;;;;;;15.50;8.68;;;;;;;3.43;57.66;99536.56;697986;28;1095;-82
2023/01/19 00:08:13;;;;;;;14.00;8.27;;;;;;;3.39;57.54;99525.28;697117;28;1013;-82
2023/01/19 00:08:34;;;;;;;12.38;8.30;;;;;;;3.32;57.98;99518.16;697387;28;822;-82
2023/01/19 00:08:55;;;;;;;13.60;8.45;;;;;;;3.37;57.91;99528.63;689921;28;1408;-81
2023/01/19 00:09:16;;;;;;;13.30;8.43;;;;;;;3.38;57.89;99522.66;689090;28;1056;-83
2023/01/19 00:09:45;;;;;;;13.35;8.68;;;;;;;3.40;57.54;99526.16;689210;28;1096;-82
2023/01/19 00:10:06;;;;;;;11.90;8.38;;;;;;;3.34;57.50;99529.41;690866;28;1068;-82
2023/01/19 00:10:26;;;;;;;13.05;8.90;;;;;;;3.30;57.83;99535.25;686463;28;1324;-82
2023/01/19 00:10:51;;;;;;;12.68;8.98;;;;;;;3.27;57.79;99536.00;692053;28;1191;-82
2023/01/19 00:11:12;;;;;;;12.95;8.93;;;;;;;3.26;58.06;99531.66;693787;28;1302;-82
2023/01/19 00:11:33;;;;;;;13.57;8.70;;;;;;;3.31;58.00;99533.56;692308;28;872;-82
2023/01/19 00:11:53;;;;;;;13.70;8.97;;;;;;;3.26;58.21;99529.09;689059;28;1134;-82
2023/01/19 00:12:14;;;;;;;12.90;8.83;;;;;;;3.27;58.27;99535.16;688979;28;1223;-82
2023/01/19 00:12:34;;;;;;;12.25;9.02;;;;;;;3.24;58.47;99522.16;686481;28;1155;-82
2023/01/19 00:12:55;;;;;;;11.47;8.93;;;;;;;3.28;57.90;99535.22;686293;28;1220;-83
2023/01/19 00:13:16;;;;;;;10.35;8.55;;;;;;;3.27;58.16;99535.16;689070;28;1085;-83
2023/01/19 00:13:38;;;;;;;10.88;8.68;;;;;;;3.26;57.97;99529.09;691785;28;1668;-82
2023/01/19 00:14:00;;;;;;;11.60;8.48;;;;;;;3.23;58.04;99531.56;688940;28;1092;-82
2023/01/19 00:14:20;;;;;;;12.02;8.60;;;;;;;3.18;58.24;99525.34;691719;28;1061;-82
2023/01/19 00:14:41;;;;;;;11.05;8.35;;;;;;;3.19;58.66;99524.53;691848;28;1198;-83
2023/01/19 00:15:02;;;;;;;12.47;8.80;;;;;;;3.28;58.10;99542.06;692328;28;1121;-83
2023/01/19 00:15:22;;;;;;;12.27;8.95;;;;;;;3.25;58.37;99532.50;689809;28;759;-82
2023/01/19 00:15:43;;;;;;;13.73;9.38;;;;;;;3.18;58.08;99524.50;691783;28;1167;-82
2023/01/19 00:16:04;;;;;;;13.83;9.30;;;;;;;3.19;58.36;99521.09;694473;28;1258;-83
2023/01/19 00:16:25;;;;;;;15.00;9.32;;;;;;;3.19;58.59;99521.94;691874;28;1224;-82
2023/01/19 00:16:46;;;;;;;13.90;8.98;;;;;;;3.19;58.09;99532.25;688942;28;1108;-82
2023/01/19 00:17:06;;;;;;;12.90;9.18;;;;;;;3.17;58.33;99521.03;686242;28;1122;-82
2023/01/19 00:17:27;;;;;;;12.48;9.32;;;;;;;3.20;58.35;99531.47;689144;28;910;-82
2023/01/19 00:17:47;;;;;;;12.47;9.40;;;;;;;3.17;58.13;99523.59;686442;28;1046;-82
2023/01/19 00:18:08;;;;;;;11.98;8.90;;;;;;;3.10;58.44;99524.19;686319;28;1162;-82
2023/01/19 00:18:29;;;;;;;12.27;8.77;;;;;;;3.21;58.63;99542.63;686391;28;807;-82
2023/01/19 00:18:50;;;;;;;12.98;8.75;;;;;;;3.14;58.65;99519.19;686646;28;996;-82
2023/01/19 00:19:11;;;;;;;13.02;8.85;;;;;;;3.05;58.75;99526.59;689160;28;1119;-82
2023/01/19 00:19:32;;;;;;;12.75;8.88;;;;;;;3.10;58.69;99537.06;692365;28;1396;-82
2023/01/19 00:19:53;;;;;;;10.93;8.52;;;;;;;3.09;58.77;99540.47;691603;28;1464;-82
2023/01/19 00:20:14;;;;;;;11.87;8.70;;;;;;;3.10;58.91;99522.50;694322;28;1032;-82
2023/01/19 00:20:35;;;;;;;11.83;8.70;;;;;;;3.13;58.57;99522.59;689072;28;1474;-82
2023/01/19 00:20:56;;;;;;;13.05;9.10;;;;;;;3.19;58.87;99531.41;691661;28;1345;-80
2023/01/19 00:21:17;;;;;;;11.88;8.95;;;;;;;3.18;58.40;99535.66;691838;28;1008;-82
2023/01/19 00:21:38;;;;;;;13.50;9.27;;;;;;;3.12;58.36;99526.00;689103;28;993;-83
2023/01/19 00:21:58;;;;;;;13.10;9.13;;;;;;;3.12;58.45;99528.59;689098;28;1152;-83
2023/01/19 00:22:19;;;;;;;13.95;8.95;;;;;;;3.15;58.54;99530.41;691711;28;1914;-82
2023/01/19 00:22:40;;;;;;;12.48;8.57;;;;;;;3.16;58.82;99529.56;689023;28;1621;-82
2023/01/19 00:23:03;;;;;;;10.48;8.20;;;;;;;3.17;58.60;99533.91;694384;28;1342;-82
2023/01/19 00:23:24;;;;;;;11.80;8.50;;;;;;;3.11;58.39;99537.13;691863;28;869;-83
2023/01/19 00:23:49;;;;;;;13.52;9.45;;;;;;;3.13;58.61;99542.38;694601;28;1121;-82
2023/01/19 00:24:10;;;;;;;14.00;9.63;;;;;;;3.15;58.80;99543.28;694457;28;1088;-82
2023/01/19 00:24:31;;;;;;;12.50;9.63;;;;;;;3.17;58.53;99551.94;694661;28;941;-83
2023/01/19 00:24:52;;;;;;;12.27;9.13;;;;;;;3.09;59.10;99530.16;691672;28;928;-82
2023/01/19 00:25:12;;;;;;;11.73;9.07;;;;;;;3.13;58.89;99542.38;694525;28;940;-82
2023/01/19 00:25:34;;;;;;;11.73;8.98;;;;;;;3.09;59.03;99536.22;694547;28;1102;-82
2023/01/19 00:25:54;;;;;;;11.65;8.85;;;;;;;3.18;58.86;99550.28;697194;28;1174;-82
2023/01/19 00:26:16;;;;;;;11.30;8.82;;;;;;;3.13;59.23;99539.78;694366;28;1282;-82
2023/01/19 00:26:39;;;;;;;11.65;8.85;;;;;;;3.10;58.92;99534.50;694535;28;1127;-83
2023/01/19 00:27:02;;;;;;;12.14;9.18;;;;;;;3.12;58.88;99545.75;688957;28;1734;-82
2023/01/19 00:27:23;;;;;;;11.75;9.20;;;;;;;3.13;59.17;99539.78;689052;28;1338;-81
2023/01/19 00:27:48;;;;;;;11.45;9.02;;;;;;;3.15;58.57;99535.56;691817;28;1235;-82
2023/01/19 00:28:14;;;;;;;13.82;9.40;;;;;;;3.12;58.67;99535.44;691583;28;1088;-82
2023/01/19 00:28:35;;;;;;;14.43;9.15;;;;;;;3.15;59.14;99525.25;689089;28;1394;-82
2023/01/19 00:28:56;;;;;;;14.57;9.48;;;;;;;3.25;59.03;99540.22;688885;28;1322;-83
2023/01/19 00:29:17;;;;;;;12.60;9.07;;;;;;;3.15;58.73;99525.25;688995;28;1201;-82
2023/01/19 00:29:37;;;;;;;12.82;9.30;;;;;;;3.12;59.14;99522.56;691853;28;1029;-82
2023/01/19 00:29:58;;;;;;;14.10;9.23;;;;;;;3.17;59.06;99546.81;691758;28;1160;-81
2023/01/19 00:30:18;;;;;;;14.00;9.33;;;;;;;3.20;58.87;99535.72;689029;28;992;-82
2023/01/19 00:30:49;;;;;;;14.03;9.30;;;;;;;3.21;58.99;99532.31;689151;28;1077;-82
2023/01/19 00:31:10;;;;;;;12.82;9.27;;;;;;;3.20;58.69;99528.88;694085;28;1054;-82
2023/01/19 00:31:32;;;;;;;13.55;9.45;;;;;;;3.25;58.42;99537.66;694681;28;846;-82
2023/01/19 00:31:53;;;;;;;12.95;9.20;;;;;;;3.17;58.87;99527.91;691751;28;1592;-82
2023/01/19 00:32:16;;;;;;;11.93;8.97;;;;;;;3.23;58.62;99536.72;689018;28;1005;-81
2023/01/19 00:32:37;;;;;;;11.27;8.90;;;;;;;3.23;58.74;99541.88;691842;28;1057;-82
2023/01/19 00:32:57;;;;;;;10.95;9.00;;;;;;;3.18;58.96;99540.81;694486;28;1116;-82
2023/01/19 00:33:18;;;;;;;11.10;9.10;;;;;;;3.27;59.29;99538.59;694535;28;1071;-82
2023/01/19 00:33:38;;;;;;;10.90;8.90;;;;;;;3.17;58.98;99528.75;691682;28;1384;-82
2023/01/19 00:33:59;;;;;;;11.38;8.90;;;;;;;3.20;59.00;99534.03;689078;28;1010;-82
2023/01/19 00:34:20;;;;;;;12.43;9.30;;;;;;;3.22;59.14;99532.41;689088;28;1159;-82
2023/01/19 00:34:48;;;;;;;13.02;9.27;;;;;;;3.35;59.10;99554.34;691764;28;1374;-82
2023/01/19 00:35:09;;;;;;;12.95;8.90;;;;;;;3.39;59.34;99547.63;691650;28;1238;-82
2023/01/19 00:35:30;;;;;;;12.55;8.60;;;;;;;3.42;59.09;99548.63;689155;28;1025;-82
2023/01/19 00:35:53;;;;;;;13.30;9.07;;;;;;;3.44;58.78;99537.47;689080;28;1057;-82
2023/01/19 00:36:15;;;;;;;13.48;9.00;;;;;;;3.42;58.90;99540.88;688989;28;1165;-82
2023/01/19 00:36:35;;;;;;;14.45;9.40;;;;;;;3.46;58.46;99528.97;691119;28;813;-82
2023/01/19 00:36:56;;;;;;;13.43;9.50;;;;;;;3.58;58.70;99546.59;689152;28;1227;-82
2023/01/19 00:37:16;;;;;;;12.40;9.33;;;;;;;3.59;58.69;99557.78;689129;28;1010;-82
2023/01/19 00:37:37;;;;;;;13.35;9.10;;;;;;;3.66;58.36;99547.75;689915;28;1174;-82
2023/01/19 00:37:58;;;;;;;14.20;9.30;;;;;;;3.65;58.33;99537.38;686703;28;1319;-82
2023/01/19 00:38:19;;;;;;;13.35;9.35;;;;;;;3.71;58.59;99537.59;691330;28;1188;-82
2023/01/19 00:38:40;;;;;;;13.10;9.77;;;;;;;3.74;58.11;99547.16;691731;28;1001;-82
2023/01/19 00:39:00;;;;;;;12.45;9.45;;;;;;;3.68;58.26;99527.19;694520;28;1098;-82
2023/01/19 00:39:21;;;;;;;14.83;9.80;;;;;;;3.68;57.88;99534.91;689091;28;1091;-82
2023/01/19 00:39:42;;;;;;;16.60;9.55;;;;;;;3.69;58.31;99547.00;691928;28;1146;-82
2023/01/19 00:40:03;;;;;;;18.20;9.70;;;;;;;3.68;58.05;99540.09;689096;28;1105;-82
2023/01/19 00:40:24;;;;;;;16.90;9.32;;;;;;;3.64;57.87;99541.66;689224;28;933;-82
2023/01/19 00:40:45;;;;;;;15.05;9.30;;;;;;;3.69;58.08;99547.00;689233;28;1247;-82
2023/01/19 00:41:05;;;;;;;15.60;9.40;;;;;;;3.65;58.01;99538.25;689068;28;1171;-82
2023/01/19 00:42:44;;;;;;;13.23;9.60;;;;;;;3.54;58.21;99530.13;694277;28;2007;-82
2023/01/19 00:43:05;;;;;;;13.17;9.60;;;;;;;3.50;58.44;99517.06;694730;28;1539;-82
2023/01/19 00:43:27;;;;;;;12.45;9.23;;;;;;;3.45;57.96;99534.97;692527;28;1278;-82
2023/01/19 00:43:47;;;;;;;12.73;8.98;;;;;;;3.45;58.25;99524.63;692180;28;1537;-82
2023/01/19 00:44:09;;;;;;;13.63;9.10;;;;;;;3.44;58.55;99528.03;692522;28;1195;-82
2023/01/19 00:44:30;;;;;;;13.23;9.38;;;;;;;3.38;58.40;99522.66;692779;28;815;-82
2023/01/19 00:44:50;;;;;;;13.38;9.45;;;;;;;3.39;58.47;99527.00;689779;28;1116;-82
2023/01/19 00:45:17;;;;;;;12.52;9.38;;;;;;;3.41;58.62;99531.38;686841;28;1170;-82
2023/01/19 00:45:38;;;;;;;12.20;9.27;;;;;;;3.40;58.47;99533.91;690364;28;1211;-83
2023/01/19 00:45:58;;;;;;;11.43;9.32;;;;;;;3.41;58.61;99525.34;690671;28;1159;-80
2023/01/19 00:46:19;;;;;;;12.10;9.47;;;;;;;3.33;58.30;99524.16;693752;28;1043;-81
2023/01/19 00:46:39;;;;;;;12.45;9.50;;;;;;;3.25;58.94;99516.16;691402;28;1215;-82
2023/01/19 00:47:02;;;;;;;11.50;9.10;;;;;;;3.29;58.48;99515.44;693496;28;1084;-82
2023/01/19 00:47:24;;;;;;;10.50;8.63;;;;;;;3.34;58.76;99521.66;692785;28;937;-82
2023/01/19 00:47:46;;;;;;;11.68;8.68;;;;;;;3.38;58.82;99530.41;689817;28;1017;-82
2023/01/19 00:48:07;;;;;;;12.75;9.30;;;;;;;3.33;58.59;99524.16;689827;28;922;-82
2023/01/19 00:48:28;;;;;;;12.45;9.38;;;;;;;3.33;58.25;99519.00;695876;28;878;-82
2023/01/19 00:48:48;;;;;;;10.82;8.95;;;;;;;3.36;58.40;99529.47;695885;28;1071;-81
2023/01/19 00:49:09;;;;;;;10.18;8.60;;;;;;;3.35;58.50;99525.09;692509;28;1158;-82
2023/01/19 00:49:30;;;;;;;12.57;9.10;;;;;;;3.27;58.81;99519.66;692230;28;1186;-82
2023/01/19 00:49:51;;;;;;;13.80;9.23;;;;;;;3.17;58.91;99507.28;689580;28;1112;-82
2023/01/19 00:50:13;;;;;;;15.35;9.43;;;;;;;3.18;58.96;99509.03;689470;28;1100;-82
2023/01/19 00:50:34;;;;;;;14.35;9.52;;;;;;;3.22;58.95;99516.03;692454;28;1178;-82
2023/01/19 00:50:54;;;;;;;13.23;9.60;;;;;;;3.20;58.60;99504.78;697811;28;1127;-82
2023/01/19 00:51:15;;;;;;;12.03;9.40;;;;;;;3.14;58.80;99508.03;694819;28;1172;-82
2023/01/19 00:51:35;;;;;;;13.18;9.10;;;;;;;3.13;58.82;99508.84;689674;28;764;-82
2023/01/19 00:51:56;;;;;;;13.77;9.03;;;;;;;3.21;59.07;99519.44;692346;28;1150;-82
2023/01/19 00:52:16;;;;;;;14.00;8.90;;;;;;;3.13;58.90;99511.44;692047;28;1222;-82
2023/01/19 00:52:38;;;;;;;12.32;8.80;;;;;;;3.19;59.10;99523.66;692466;28;1055;-82
2023/01/19 00:52:59;;;;;;;13.20;9.10;;;;;;;3.17;59.26;99517.59;690099;28;1052;-82
2023/01/19 00:53:20;;;;;;;13.00;9.00;;;;;;;3.12;58.92;99518.28;690147;28;1096;-83
2023/01/19 00:53:41;;;;;;;13.77;9.32;;;;;;;3.15;59.06;99514.94;692118;28;977;-82
2023/01/19 00:54:03;;;;;;;15.35;9.57;;;;;;;3.08;59.28;99529.31;689397;28;1151;-82
2023/01/19 00:54:24;;;;;;;16.35;9.40;;;;;;;3.11;59.15;99515.63;689529;28;1180;-82
2023/01/19 00:54:44;;;;;;;15.07;9.05;;;;;;;3.08;58.75;99513.84;689285;28;881;-82
2023/01/19 00:55:10;;;;;;;12.33;8.33;;;;;;;3.12;59.36;99520.84;691960;28;1058;-82
2023/01/19 00:55:32;;;;;;;12.88;8.80;;;;;;;3.07;59.16;99526.66;692080;28;1105;-82
2023/01/19 00:55:53;;;;;;;13.90;9.10;;;;;;;3.08;59.20;99529.31;689353;28;1220;-82
2023/01/19 00:56:14;;;;;;;14.23;9.80;;;;;;;3.13;59.11;99521.75;686571;28;1274;-82
2023/01/19 00:56:35;;;;;;;13.60;9.90;;;;;;;3.19;59.30;99542.56;686669;28;1160;-82
2023/01/19 00:56:56;;;;;;;13.80;9.50;;;;;;;3.09;58.91;99519.84;686552;28;1078;-81
2023/01/19 00:57:18;;;;;;;15.05;9.55;;;;;;;3.09;59.20;99520.75;687095;28;980;-82
2023/01/19 00:57:39;;;;;;;15.63;9.77;;;;;;;3.16;59.70;99542.47;686487;28;1856;-83
2023/01/19 00:58:00;;;;;;;15.25;10.20;;;;;;;3.25;59.57;99535.06;689694;28;899;-82
2023/01/19 00:58:21;;;;;;;14.20;9.77;;;;;;;3.17;59.07;99539.06;690320;28;1243;-82
2023/01/19 00:58:44;;;;;;;13.25;9.20;;;;;;;3.23;59.43;99534.16;689253;28;1534;-82
2023/01/19 00:59:05;;;;;;;11.95;8.80;;;;;;;3.22;59.34;99532.41;689090;28;1028;-82
2023/01/19 00:59:26;;;;;;;11.70;9.03;;;;;;;3.27;59.17;99548.03;689364;28;821;-82
2023/01/19 00:59:46;;;;;;;12.60;9.60;;;;;;;3.20;59.52;99564.09;694889;28;977;-82
2023/01/19 01:00:12;;;;;;;13.88;10.10;;;;;;;3.25;59.73;99540.22;694430;28;1111;-82
2023/01/19 01:00:33;;;;;;;13.48;10.00;;;;;;;3.31;59.77;99541.28;691838;28;1415;-82
2023/01/19 01:00:56;;;;;;;11.13;9.10;;;;;;;3.34;59.62;99554.28;691830;28;1040;-82
2023/01/19 01:01:17;;;;;;;10.98;8.38;;;;;;;3.36;59.46;99542.34;694496;28;1923;-82
2023/01/19 01:01:37;;;;;;;13.43;8.77;;;;;;;3.39;59.62;99547.63;694539;28;1130;-82
2023/01/19 01:01:58;;;;;;;14.30;9.20;;;;;;;3.38;59.30;99531.25;691919;28;1097;-82
2023/01/19 01:02:18;;;;;;;14.07;9.40;;;;;;;3.48;59.10;99545.38;691897;28;1101;-82
2023/01/19 01:02:41;;;;;;;13.17;9.60;;;;;;;3.51;59.12;99550.66;691724;28;1120;-82
2023/01/19 01:03:01;;;;;;;14.70;10.00;;;;;;;3.46;59.15;99539.28;692436;28;1135;-82
2023/01/19 01:03:26;;;;;;;14.50;10.18;;;;;;;3.49;58.79;99539.38;694553;28;1138;-82
2023/01/19 01:03:47;;;;;;;13.63;9.93;;;;;;;3.47;58.62;99535.88;692923;28;1065;-82
2023/01/19 01:04:07;;;;;;;13.37;9.50;;;;;;;3.53;58.60;99554.19;691719;28;1121;-82
2023/01/19 01:04:28;;;;;;;13.07;9.15;;;;;;;3.49;58.79;99547.13;691830;28;1197;-82
2023/01/19 01:04:53;;;;;;;13.57;9.18;;;;;;;3.50;59.07;99543.72;686434;28;1548;-82
2023/01/19 01:05:14;;;;;;;13.10;9.70;;;;;;;3.54;58.63;99543.03;686293;28;1128;-82
2023/01/19 01:05:38;;;;;;;13.23;9.98;;;;;;;3.51;59.08;99540.34;686601;28;934;-82
2023/01/19 01:05:59;;;;;;;13.95;10.23;;;;;;;3.50;59.01;99543.72;689188;28;961;-82
2023/01/19 01:06:19;;;;;;;13.73;10.32;;;;;;;3.48;59.14;99545.38;691761;28;1001;-82
2023/01/19 01:06:40;;;;;;;12.63;10.07;;;;;;;3.55;59.27;99547.38;691781;28;1192;-82
2023/01/19 01:07:00;;;;;;;12.23;9.97;;;;;;;3.56;59.28;99548.25;689126;28;1106;-81
2023/01/19 01:07:21;;;;;;;13.98;10.10;;;;;;;3.60;58.97;99547.53;689064;28;1196;-82
2023/01/19 01:07:48;;;;;;;15.80;10.20;;;;;;;3.63;58.63;99541.59;689083;28;1080;-82
2023/01/19 01:08:08;;;;;;;15.32;10.15;;;;;;;3.68;58.68;99542.66;691646;28;1113;-82
2023/01/19 01:08:29;;;;;;;12.33;9.60;;;;;;;3.67;58.76;99541.78;691895;28;668;-83
2023/01/19 01:08:51;;;;;;;11.40;9.52;;;;;;;3.69;58.91;99545.28;691868;28;988;-82
2023/01/19 01:09:11;;;;;;;12.13;10.00;;;;;;;3.74;58.94;99558.34;692945;28;1236;-82
2023/01/19 01:09:32;;;;;;;12.15;10.00;;;;;;;3.74;59.00;99547.16;689225;28;847;-82
2023/01/19 01:09:52;;;;;;;11.77;9.55;;;;;;;3.78;58.85;99549.00;689503;28;1148;-82
2023/01/19 01:10:19;;;;;;;11.43;9.23;;;;;;;3.77;58.89;99537.81;689488;28;1149;-82
2023/01/19 01:10:39;;;;;;;13.05;9.80;;;;;;;3.74;58.47;99527.38;690164;28;1186;-81
2023/01/19 01:11:00;;;;;;;12.68;9.32;;;;;;;3.74;58.76;99532.53;689080;28;1037;-82
2023/01/19 01:11:21;;;;;;;12.17;9.20;;;;;;;3.86;58.81;99549.31;688475;28;1270;-82
2023/01/19 01:11:42;;;;;;;14.15;9.43;;;;;;;3.84;58.65;99538.91;689072;28;1077;-82
2023/01/19 01:12:03;;;;;;;14.98;9.75;;;;;;;3.83;58.40;99540.63;688891;28;1034;-82
2023/01/19 01:12:24;;;;;;;15.48;10.10;;;;;;;3.80;58.69;99543.09;689274;28;863;-82
2023/01/19 01:12:46;;;;;;;13.93;9.90;;;;;;;3.82;58.50;99533.69;691787;28;1126;-82
2023/01/19 01:13:07;;;;;;;13.52;9.38;;;;;;;3.91;58.59;99545.16;694405;28;1050;-82
2023/01/19 01:13:28;;;;;;;11.70;8.85;;;;;;;3.80;58.32;99540.50;691881;28;1309;-83
2023/01/19 01:13:49;;;;;;;12.10;9.10;;;;;;;3.89;58.57;99536.50;692560;28;1100;-83
2023/01/19 01:14:11;;;;;;;12.30;9.48;;;;;;;3.89;58.83;99537.38;694422;28;1088;-83
2023/01/19 01:14:32;;;;;;;13.13;9.65;;;;;;;3.88;58.62;99535.63;698267;28;842;-81
2023/01/19 01:14:53;;;;;;;14.37;9.67;;;;;;;3.88;58.10;99552.81;697255;28;1130;-81
2023/01/19 01:15:14;;;;;;;15.35;9.68;;;;;;;3.96;58.47;99548.78;688991;28;1064;-82
2023/01/19 01:15:35;;;;;;;14.98;9.45;;;;;;;3.91;57.71;99542.56;691326;28;1467;-82
2023/01/19 01:15:56;;;;;;;14.27;9.30;;;;;;;3.93;58.08;99549.56;690739;28;1110;-82
2023/01/19 01:16:16;;;;;;;14.40;9.20;;;;;;;3.96;58.06;99543.63;691288;28;1094;-82
2023/01/19 01:16:37;;;;;;;14.40;9.10;;;;;;;3.93;57.81;99548.69;691412;28;1107;-82
2023/01/19 01:16:59;;;;;;;13.27;8.93;;;;;;;3.82;58.09;99536.25;691153;28;1202;-82
2023/01/19 01:17:23;;;;;;;12.60;9.13;;;;;;;3.78;57.92;99536.09;691265;28;1016;-82
2023/01/19 01:17:48;;;;;;;13.18;9.48;;;;;;;3.79;58.03;99536.16;688619;28;1010;-82
2023/01/19 01:18:08;;;;;;;12.10;9.35;;;;;;;3.73;58.07;99541.09;685998;28;1164;-82
2023/01/19 01:18:29;;;;;;;13.48;9.55;;;;;;;3.62;58.45;99527.81;686107;28;886;-82
2023/01/19 01:18:49;;;;;;;13.97;9.83;;;;;;;3.62;58.41;99537.28;688666;28;1064;-82
2023/01/19 01:19:10;;;;;;;14.13;9.75;;;;;;;3.61;58.26;99522.63;691202;28;1090;-82
2023/01/19 01:19:31;;;;;;;14.77;9.60;;;;;;;3.49;58.54;99521.34;688765;28;1097;-82
2023/01/19 01:19:52;;;;;;;14.88;9.52;;;;;;;3.51;58.46;99545.50;688729;28;1014;-83
2023/01/19 01:20:17;;;;;;;14.23;9.47;;;;;;;3.48;58.91;99532.47;688459;28;1106;-82
2023/01/19 01:20:37;;;;;;;13.30;9.50;;;;;;;3.49;58.92;99536.81;693307;28;1247;-83
2023/01/19 01:21:03;;;;;;;13.60;9.23;;;;;;;3.49;59.16;99544.53;692229;28;1169;-82
2023/01/19 01:21:24;;;;;;;15.15;9.50;;;;;;;3.53;59.01;99532.66;691373;28;1147;-82
2023/01/19 01:21:44;;;;;;;18.33;10.10;;;;;;;3.51;58.78;99522.28;688660;28;1012;-82
2023/01/19 01:22:05;;;;;;;16.53;10.13;;;;;;;3.52;58.70;99536.94;691336;28;1040;-82
2023/01/19 01:22:26;;;;;;;15.10;9.82;;;;;;;3.51;58.60;99534.31;691422;28;1997;-82
2023/01/19 01:22:50;;;;;;;11.40;9.25;;;;;;;3.51;58.87;99530.03;691250;28;1672;-83
2023/01/19 01:23:11;;;;;;;12.23;9.18;;;;;;;3.58;58.90;99550.88;691193;28;1365;-82
2023/01/19 01:23:33;;;;;;;12.90;9.05;;;;;;;3.53;58.84;99527.47;694178;28;842;-82
2023/01/19 01:23:53;;;;;;;12.60;8.93;;;;;;;3.56;58.82;99533.63;693894;28;1165;-83
2023/01/19 01:24:15;;;;;;;12.93;9.10;;;;;;;3.48;58.89;99524.75;693846;28;996;-82
2023/01/19 01:24:35;;;;;;;13.43;9.30;;;;;;;3.52;58.97;99544.69;691423;28;1685;-82
2023/01/19 01:24:56;;;;;;;13.40;9.23;;;;;;;3.48;58.79;99536.78;693906;28;1284;-82
2023/01/19 01:25:19;;;;;;;12.48;9.45;;;;;;;3.55;58.62;99546.47;691210;28;1014;-82
2023/01/19 01:25:39;;;;;;;13.15;9.52;;;;;;;3.45;58.93;99540.13;694132;28;1201;-83
2023/01/19 01:26:01;;;;;;;12.73;9.50;;;;;;;3.53;59.02;99542.97;694000;28;1347;-83
2023/01/19 01:26:21;;;;;;;13.40;9.70;;;;;;;3.57;59.22;99562.91;693931;28;978;-82
2023/01/19 01:26:42;;;;;;;12.97;9.33;;;;;;;3.64;59.19;99558.84;691122;28;1102;-82
2023/01/19 01:27:02;;;;;;;13.15;9.00;;;;;;;3.64;59.28;99567.47;688575;28;1138;-83
2023/01/19 01:27:23;;;;;;;13.15;8.70;;;;;;;3.69;59.23;99545.28;691318;28;1377;-83
2023/01/19 01:27:44;;;;;;;13.33;9.00;;;;;;;3.76;58.93;99555.81;691452;28;1070;-82
2023/01/19 01:28:07;;;;;;;13.88;9.20;;;;;;;3.86;59.12;99568.22;691281;28;1129;-83
2023/01/19 01:28:28;;;;;;;13.80;9.20;;;;;;;3.83;58.83;99543.22;688723;28;864;-82
2023/01/19 01:28:49;;;;;;;13.82;9.20;;;;;;;3.91;58.64;99547.75;688524;28;1058;-82
2023/01/19 01:29:10;;;;;;;11.88;8.68;;;;;;;3.88;58.35;99545.06;690064;28;1076;-82
2023/01/19 01:29:30;;;;;;;11.18;8.48;;;;;;;3.91;58.44;99550.31;694199;28;869;-82
2023/01/19 01:29:51;;;;;;;10.60;8.30;;;;;;;3.97;58.46;99558.28;696777;28;1247;-83
2023/01/19 01:30:13;;;;;;;11.75;9.00;;;;;;;3.93;58.47;99544.38;696596;28;1113;-82
2023/01/19 01:30:38;;;;;;;11.20;9.15;;;;;;;4.05;58.34;99553.41;694203;28;786;-82
2023/01/19 01:30:59;;;;;;;12.48;9.20;;;;;;;4.00;58.19;99542.94;691405;28;1007;-82
2023/01/19 01:31:20;;;;;;;14.15;9.40;;;;;;;4.05;58.07;99554.25;688856;28;1195;-82
2023/01/19 01:31:40;;;;;;;17.20;9.87;;;;;;;4.10;57.94;99551.84;688392;28;1390;-82
2023/01/19 01:32:02;;;;;;;15.85;9.85;;;;;;;4.10;57.93;99557.91;688544;28;1596;-82
2023/01/19 01:32:22;;;;;;;15.18;9.43;;;;;;;4.13;58.26;99548.50;688708;28;1124;-82
2023/01/19 01:32:43;;;;;;;14.77;9.02;;;;;;;4.15;57.95;99554.59;688529;28;1120;-82
2023/01/19 01:33:03;;;;;;;15.50;8.90;;;;;;;4.09;57.77;99556.16;688600;28;1034;-82
2023/01/19 01:33:24;;;;;;;16.50;8.97;;;;;;;4.23;57.77;99581.59;691367;28;800;-82
2023/01/19 01:33:45;;;;;;;13.20;9.07;;;;;;;4.17;58.09;99547.78;693922;28;1179;-82
2023/01/19 01:34:06;;;;;;;13.88;9.30;;;;;;;4.22;57.70;99554.88;691157;28;1147;-82
2023/01/19 01:34:26;;;;;;;12.88;9.70;;;;;;;4.17;57.96;99542.63;688553;28;1403;-82
2023/01/19 01:34:47;;;;;;;14.38;9.55;;;;;;;4.21;58.00;99559.97;688594;28;1161;-82
2023/01/19 01:35:09;;;;;;;14.32;9.70;;;;;;;4.16;57.47;99543.44;691187;28;1176;-82
2023/01/19 01:35:31;;;;;;;14.55;9.90;;;;;;;4.18;57.49;99552.13;694106;28;827;-82
2023/01/19 01:35:51;;;;;;;14.32;9.70;;;;;;;4.19;57.51;99548.72;694064;28;1056;-82
2023/01/19 01:36:12;;;;;;;13.48;9.13;;;;;;;4.23;57.61;99553.19;693863;28;1057;-82
2023/01/19 01:36:32;;;;;;;13.27;9.00;;;;;;;4.24;57.33;99552.38;688670;28;1050;-82
2023/01/19 01:36:53;;;;;;;13.00;9.50;;;;;;;4.23;57.83;99554.06;689077;28;1051;-82
2023/01/19 01:37:13;;;;;;;13.82;9.30;;;;;;;4.21;57.76;99553.09;691793;28;945;-82
2023/01/19 01:37:35;;;;;;;13.63;9.40;;;;;;;4.24;57.72;99555.81;691554;28;1131;-82
2023/01/19 01:37:57;;;;;;;13.80;9.27;;;;;;;4.18;57.71;99544.38;691744;28;1267;-82
2023/01/19 01:38:18;;;;;;;12.65;9.80;;;;;;;4.21;57.75;99552.22;691844;28;1000;-82
2023/01/19 01:38:40;;;;;;;13.90;9.90;;;;;;;4.24;57.42;99544.63;691425;28;1190;-83
2023/01/19 01:39:00;;;;;;;14.98;9.70;;;;;;;4.29;57.57;99549.94;691275;28;1071;-79
2023/01/19 01:39:21;;;;;;;14.82;9.40;;;;;;;4.27;57.34;99549.00;689288;28;1117;-79
2023/01/19 01:39:42;;;;;;;15.48;9.30;;;;;;;4.32;57.17;99545.75;691961;28;1116;-80
2023/01/19 01:40:04;;;;;;;13.77;9.20;;;;;;;4.28;57.49;99555.94;694399;28;1154;-80
2023/01/19 01:40:26;;;;;;;14.27;9.07;;;;;;;4.31;57.35;99556.03;694029;28;1336;-79
2023/01/19 01:40:47;;;;;;;12.75;8.93;;;;;;;4.29;57.41;99545.63;694063;28;1387;-80
2023/01/19 01:41:08;;;;;;;12.80;9.00;;;;;;;4.28;57.53;99558.53;688399;28;965;-80
2023/01/19 01:41:29;;;;;;;12.52;9.30;;;;;;;4.27;57.75;99565.38;691449;28;1165;-80
2023/01/19 01:41:50;;;;;;;11.57;9.07;;;;;;;4.30;57.58;99570.63;691222;28;942;-79
2023/01/19 01:42:19;;;;;;;12.80;9.40;;;;;;;4.30;57.65;99567.19;694081;28;1209;-80
2023/01/19 01:42:41;;;;;;;13.88;9.00;;;;;;;4.24;57.82;99560.13;691057;28;1972;-80
2023/01/19 01:43:02;;;;;;;13.57;9.05;;;;;;;4.27;57.87;99554.16;691286;28;1105;-79
2023/01/19 01:43:23;;;;;;;13.30;9.30;;;;;;;4.28;57.59;99572.28;691289;28;927;-80
2023/01/19 01:43:47;;;;;;;12.77;9.60;;;;;;;4.32;57.77;99558.66;696745;28;1185;-80
2023/01/19 01:44:51;;;;;;;12.57;9.30;;;;;;;4.26;57.61;99563.63;693855;28;1109;-80
2023/01/19 01:45:31;;;;;;;12.52;9.60;;;;;;;4.35;57.40;99563.94;688253;28;1175;-79